createdAt,value
2018-05-01T00:00:09.714Z,1002.15
2018-05-01T00:01:10.132Z,1002.14
2018-05-01T00:02:10.551Z,1002.19
2018-05-01T00:03:10.988Z,1002.24
2018-05-01T00:04:11.418Z,1002.27
2018-05-01T00:05:11.843Z,1002.29
2018-05-01T00:06:12.283Z,1002.35
2018-05-01T00:07:12.715Z,1002.40
2018-05-01T00:08:13.136Z,1002.39
2018-05-01T00:09:13.564Z,1002.36
2018-05-01T00:10:13.994Z,1002.38
2018-05-01T00:11:14.463Z,1002.46
2018-05-01T00:12:14.855Z,1002.46
2018-05-01T00:13:15.288Z,1002.51
2018-05-01T00:14:15.716Z,1002.55
2018-05-01T00:15:16.153Z,1002.57
2018-05-01T00:16:16.583Z,1002.59
2018-05-01T00:17:17.011Z,1002.60
2018-05-01T00:18:17.438Z,1002.46
2018-05-01T00:19:17.867Z,1002.43
2018-05-01T00:20:18.299Z,1002.37
2018-05-01T00:21:18.728Z,1002.38
2018-05-01T00:22:19.168Z,1002.35
2018-05-01T00:23:19.593Z,1002.33
2018-05-01T00:24:20.019Z,1002.34
2018-05-01T00:25:20.445Z,1002.31
2018-05-01T00:26:20.883Z,1002.31
2018-05-01T00:27:21.309Z,1002.32
2018-05-01T00:28:21.736Z,1002.30
2018-05-01T00:29:22.165Z,1002.28
2018-05-01T00:30:22.599Z,1002.28
2018-05-01T00:31:23.026Z,1002.34
2018-05-01T00:32:23.456Z,1002.43
2018-05-01T00:33:23.889Z,1002.51
2018-05-01T00:34:24.320Z,1002.53
2018-05-01T00:35:24.749Z,1002.56
2018-05-01T00:36:25.172Z,1002.50
2018-05-01T00:37:25.670Z,1002.52
2018-05-01T00:38:26.039Z,1002.50
2018-05-01T00:39:26.475Z,1002.45
2018-05-01T00:40:26.901Z,1002.45
2018-05-01T00:41:27.331Z,1002.52
2018-05-01T00:42:27.758Z,1002.54
2018-05-01T00:43:28.187Z,1002.55
2018-05-01T00:44:28.620Z,1002.59
2018-05-01T00:45:29.054Z,1002.58
2018-05-01T00:46:29.484Z,1002.57
2018-05-01T00:47:29.911Z,1002.62
2018-05-01T00:48:30.336Z,1002.72
2018-05-01T00:49:30.773Z,1002.79
2018-05-01T00:50:31.203Z,1002.91
2018-05-01T00:51:31.660Z,1002.90
2018-05-01T00:52:32.064Z,1002.96
2018-05-01T00:53:32.496Z,1002.97
2018-05-01T00:54:32.965Z,1002.97
2018-05-01T00:55:33.364Z,1002.98
2018-05-01T00:56:33.782Z,1002.92
2018-05-01T00:57:34.215Z,1002.95
2018-05-01T00:58:34.646Z,1002.92
2018-05-01T00:59:35.075Z,1002.88
2018-05-01T01:00:35.503Z,1002.89
2018-05-01T01:01:35.936Z,1002.88
2018-05-01T01:02:36.365Z,1002.94
2018-05-01T01:03:36.820Z,1002.89
2018-05-01T01:04:37.228Z,1002.89
2018-05-01T01:05:37.658Z,1002.87
2018-05-01T01:06:38.088Z,1002.86
2018-05-01T01:07:38.545Z,1002.86
2018-05-01T01:08:38.953Z,1002.82
2018-05-01T01:09:39.383Z,1002.81
2018-05-01T01:10:39.812Z,1002.79
2018-05-01T01:11:40.245Z,1002.78
2018-05-01T01:12:40.670Z,1002.74
2018-05-01T01:13:41.104Z,1002.72
2018-05-01T01:14:41.537Z,1002.71
2018-05-01T01:15:41.962Z,1002.74
2018-05-01T01:16:42.396Z,1002.71
2018-05-01T01:17:42.838Z,1002.70
2018-05-01T01:18:43.250Z,1002.63
2018-05-01T01:19:43.684Z,1002.68
2018-05-01T01:20:44.122Z,1002.68
2018-05-01T01:21:44.544Z,1002.66
2018-05-01T01:22:44.980Z,1002.63
2018-05-01T01:23:45.412Z,1002.64
2018-05-01T01:24:45.852Z,1002.66
2018-05-01T01:25:46.268Z,1002.62
2018-05-01T01:26:46.697Z,1002.66
2018-05-01T01:27:47.135Z,1002.66
2018-05-01T01:28:47.561Z,1002.69
2018-05-01T01:29:47.992Z,1002.70
2018-05-01T01:30:48.435Z,1002.74
2018-05-01T01:31:48.857Z,1002.76
2018-05-01T01:32:49.282Z,1002.80
2018-05-01T01:33:49.720Z,1002.81
2018-05-01T01:34:50.163Z,1002.88
2018-05-01T01:35:50.579Z,1002.88
2018-05-01T01:36:51.009Z,1002.87
2018-05-01T01:37:51.443Z,1002.86
2018-05-01T01:38:51.875Z,1002.80
2018-05-01T01:39:52.299Z,1002.78
2018-05-01T01:40:52.737Z,1002.73
2018-05-01T01:41:53.165Z,1002.69
2018-05-01T01:42:53.605Z,1002.70
2018-05-01T01:43:54.025Z,1002.76
2018-05-01T01:44:54.459Z,1002.76
2018-05-01T01:45:54.900Z,1002.78
2018-05-01T01:46:55.318Z,1002.77
2018-05-01T01:47:55.749Z,1002.79
2018-05-01T01:48:56.183Z,1002.81
2018-05-01T01:49:56.613Z,1002.83
2018-05-01T01:50:57.042Z,1002.81
2018-05-01T01:51:57.473Z,1002.85
2018-05-01T01:52:57.923Z,1002.87
2018-05-01T01:53:58.335Z,1002.85
2018-05-01T01:54:58.765Z,1002.88
2018-05-01T01:55:59.208Z,1002.92
2018-05-01T01:56:59.634Z,1002.93
2018-05-01T01:58:00.060Z,1002.92
2018-05-01T01:59:00.492Z,1002.95
2018-05-01T02:00:00.933Z,1002.88
2018-05-01T02:01:01.351Z,1002.90
2018-05-01T02:02:01.801Z,1002.96
2018-05-01T02:03:02.219Z,1002.98
2018-05-01T02:04:02.652Z,1003.01
2018-05-01T02:05:03.079Z,1003.04
2018-05-01T02:06:03.508Z,1002.99
2018-05-01T02:07:03.961Z,1003.05
2018-05-01T02:08:04.424Z,1003.01
2018-05-01T02:09:04.816Z,1003.02
2018-05-01T02:10:05.236Z,1002.98
2018-05-01T02:11:05.668Z,1002.96
2018-05-01T02:12:06.095Z,1002.89
2018-05-01T02:13:06.533Z,1002.80
2018-05-01T02:14:06.964Z,1002.86
2018-05-01T02:15:07.395Z,1002.84
2018-05-01T02:16:07.819Z,1002.77
2018-05-01T02:17:08.252Z,1002.78
2018-05-01T02:18:08.685Z,1002.79
2018-05-01T02:19:09.116Z,1002.75
2018-05-01T02:20:09.543Z,1002.66
2018-05-01T02:21:09.973Z,1002.66
2018-05-01T02:22:10.406Z,1002.72
2018-05-01T02:23:10.837Z,1002.78
2018-05-01T02:24:11.279Z,1002.76
2018-05-01T02:25:11.700Z,1002.77
2018-05-01T02:26:12.134Z,1002.74
2018-05-01T02:27:12.560Z,1002.78
2018-05-01T02:28:12.990Z,1002.75
2018-05-01T02:29:13.424Z,1002.77
2018-05-01T02:30:13.863Z,1002.75
2018-05-01T02:31:14.287Z,1002.74
2018-05-01T02:32:14.715Z,1002.73
2018-05-01T02:33:15.149Z,1002.78
2018-05-01T02:34:15.576Z,1002.72
2018-05-01T02:35:16.009Z,1002.71
2018-05-01T02:36:16.441Z,1002.67
2018-05-01T02:37:16.867Z,1002.66
2018-05-01T02:38:17.305Z,1002.74
2018-05-01T02:39:17.735Z,1002.70
2018-05-01T02:40:18.169Z,1002.72
2018-05-01T02:41:18.633Z,1002.69
2018-05-01T02:42:19.023Z,1002.72
2018-05-01T02:43:19.453Z,1002.74
2018-05-01T02:44:19.895Z,1002.79
2018-05-01T02:45:20.316Z,1002.77
2018-05-01T02:46:20.749Z,1002.79
2018-05-01T02:47:21.183Z,1002.77
2018-05-01T02:48:21.610Z,1002.81
2018-05-01T02:49:22.042Z,1002.79
2018-05-01T02:50:22.473Z,1002.73
2018-05-01T02:51:22.900Z,1002.71
2018-05-01T02:52:23.337Z,1002.67
2018-05-01T02:53:23.764Z,1002.61
2018-05-01T02:54:24.196Z,1002.58
2018-05-01T02:55:24.627Z,1002.55
2018-05-01T02:56:25.057Z,1002.57
2018-05-01T02:57:25.487Z,1002.61
2018-05-01T02:58:25.925Z,1002.59
2018-05-01T02:59:26.348Z,1002.59
2018-05-01T03:00:26.781Z,1002.63
2018-05-01T03:01:27.211Z,1002.65
2018-05-01T03:02:27.644Z,1002.65
2018-05-01T03:03:28.074Z,1002.66
2018-05-01T03:04:28.503Z,1002.68
2018-05-01T03:05:28.948Z,1002.68
2018-05-01T03:06:29.366Z,1002.67
2018-05-01T03:07:29.796Z,1002.63
2018-05-01T03:08:30.231Z,1002.65
2018-05-01T03:09:30.658Z,1002.57
2018-05-01T03:10:31.089Z,1002.55
2018-05-01T03:11:31.519Z,1002.60
2018-05-01T03:12:31.960Z,1002.60
2018-05-01T03:13:32.384Z,1002.68
2018-05-01T03:14:32.812Z,1002.59
2018-05-01T03:15:33.245Z,1002.64
2018-05-01T03:16:33.675Z,1002.71
2018-05-01T03:17:34.104Z,1002.69
2018-05-01T03:18:34.540Z,1002.75
2018-05-01T03:19:34.967Z,1002.74
2018-05-01T03:20:35.396Z,1002.77
2018-05-01T03:21:35.828Z,1002.76
2018-05-01T03:22:36.264Z,1002.78
2018-05-01T03:23:36.689Z,1002.82
2018-05-01T03:24:37.119Z,1002.81
2018-05-01T03:25:37.552Z,1002.80
2018-05-01T03:26:37.997Z,1002.78
2018-05-01T03:27:38.408Z,1002.74
2018-05-01T03:28:38.845Z,1002.83
2018-05-01T03:29:39.272Z,1002.86
2018-05-01T03:30:39.707Z,1002.89
2018-05-01T03:31:40.140Z,1002.96
2018-05-01T03:32:40.567Z,1002.97
2018-05-01T03:33:40.994Z,1002.95
2018-05-01T03:34:41.424Z,1002.93
2018-05-01T03:35:41.857Z,1002.99
2018-05-01T03:36:42.284Z,1002.95
2018-05-01T03:37:42.722Z,1002.92
2018-05-01T03:38:43.147Z,1002.91
2018-05-01T03:39:43.579Z,1002.96
2018-05-01T03:40:44.007Z,1003.00
2018-05-01T03:41:44.451Z,1003.05
2018-05-01T03:42:44.876Z,1003.03
2018-05-01T03:43:45.300Z,1003.06
2018-05-01T03:44:45.731Z,1003.05
2018-05-01T03:45:46.172Z,1003.01
2018-05-01T03:46:46.594Z,1003.06
2018-05-01T03:47:47.020Z,1003.07
2018-05-01T03:48:47.456Z,1003.02
2018-05-01T03:49:47.897Z,1003.14
2018-05-01T03:50:48.312Z,1003.17
2018-05-01T03:51:48.748Z,1003.14
2018-05-01T03:52:49.180Z,1003.18
2018-05-01T03:53:49.602Z,1003.13
2018-05-01T03:54:50.037Z,1003.15
2018-05-01T03:55:50.541Z,1003.11
2018-05-01T03:56:50.899Z,1003.17
2018-05-01T03:57:51.326Z,1003.17
2018-05-01T03:58:51.758Z,1003.17
2018-05-01T03:59:52.189Z,1003.18
2018-05-01T04:00:52.619Z,1003.19
2018-05-01T04:01:53.051Z,1003.23
2018-05-01T04:02:53.481Z,1003.26
2018-05-01T04:03:53.910Z,1003.22
2018-05-01T04:04:54.360Z,1003.25
2018-05-01T04:05:54.810Z,1003.25
2018-05-01T04:06:55.203Z,1003.24
2018-05-01T04:07:55.636Z,1003.25
2018-05-01T04:08:56.066Z,1003.25
2018-05-01T04:09:56.495Z,1003.33
2018-05-01T04:10:56.928Z,1003.39
2018-05-01T04:11:57.357Z,1003.39
2018-05-01T04:12:57.788Z,1003.43
2018-05-01T04:13:58.216Z,1003.45
2018-05-01T04:14:58.652Z,1003.44
2018-05-01T04:15:59.088Z,1003.48
2018-05-01T04:16:59.508Z,1003.47
2018-05-01T04:17:59.941Z,1003.55
2018-05-01T04:19:00.374Z,1003.48
2018-05-01T04:20:00.807Z,1003.52
2018-05-01T04:21:01.256Z,1003.54
2018-05-01T04:22:01.672Z,1003.55
2018-05-01T04:23:02.099Z,1003.59
2018-05-01T04:24:02.527Z,1003.60
2018-05-01T04:25:02.970Z,1003.63
2018-05-01T04:26:03.393Z,1003.64
2018-05-01T04:27:03.817Z,1003.69
2018-05-01T04:28:04.251Z,1003.68
2018-05-01T04:29:04.689Z,1003.69
2018-05-01T04:30:05.126Z,1003.72
2018-05-01T04:31:05.548Z,1003.75
2018-05-01T04:32:05.973Z,1003.71
2018-05-01T04:33:06.414Z,1003.74
2018-05-01T04:34:06.836Z,1003.78
2018-05-01T04:35:07.267Z,1003.76
2018-05-01T04:36:07.704Z,1003.76
2018-05-01T04:37:08.132Z,1003.72
2018-05-01T04:38:08.565Z,1003.78
2018-05-01T04:39:08.993Z,1003.72
2018-05-01T04:40:09.431Z,1003.77
2018-05-01T04:41:09.850Z,1003.77
2018-05-01T04:42:10.283Z,1003.78
2018-05-01T04:43:10.717Z,1003.75
2018-05-01T04:44:11.150Z,1003.80
2018-05-01T04:45:11.581Z,1003.73
2018-05-01T04:46:12.012Z,1003.81
2018-05-01T04:47:12.440Z,1003.74
2018-05-01T04:48:12.870Z,1003.75
2018-05-01T04:49:13.314Z,1003.71
2018-05-01T04:50:13.737Z,1003.73
2018-05-01T04:51:14.165Z,1003.71
2018-05-01T04:52:14.599Z,1003.66
2018-05-01T04:53:15.067Z,1003.66
2018-05-01T04:54:15.496Z,1003.68
2018-05-01T04:55:15.890Z,1003.71
2018-05-01T04:56:16.328Z,1003.65
2018-05-01T04:57:16.767Z,1003.63
2018-05-01T04:58:17.182Z,1003.72
2018-05-01T04:59:17.614Z,1003.65
2018-05-01T05:00:18.049Z,1003.70
2018-05-01T05:01:18.605Z,1003.70
2018-05-01T05:02:18.903Z,1003.74
2018-05-01T05:03:19.342Z,1003.67
2018-05-01T05:04:19.771Z,1003.69
2018-05-01T05:05:20.208Z,1003.72
2018-05-01T05:06:20.654Z,1003.78
2018-05-01T05:07:21.062Z,1003.73
2018-05-01T05:08:21.500Z,1003.75
2018-05-01T05:09:21.929Z,1003.79
2018-05-01T05:10:22.362Z,1003.80
2018-05-01T05:11:22.792Z,1003.81
2018-05-01T05:12:23.222Z,1003.85
2018-05-01T05:13:23.656Z,1003.87
2018-05-01T05:14:24.083Z,1003.85
2018-05-01T05:15:24.518Z,1003.87
2018-05-01T05:16:24.944Z,1003.87
2018-05-01T05:17:25.381Z,1003.87
2018-05-01T05:18:25.817Z,1003.87
2018-05-01T05:19:26.248Z,1003.93
2018-05-01T05:20:26.678Z,1003.84
2018-05-01T05:21:27.118Z,1003.88
2018-05-01T05:22:27.539Z,1003.90
2018-05-01T05:23:27.970Z,1003.90
2018-05-01T05:24:28.402Z,1003.93
2018-05-01T05:25:28.836Z,1003.93
2018-05-01T05:26:29.263Z,1003.87
2018-05-01T05:27:29.696Z,1003.95
2018-05-01T05:28:30.130Z,1003.96
2018-05-01T05:29:30.569Z,1003.94
2018-05-01T05:30:30.992Z,1003.98
2018-05-01T05:31:31.426Z,1003.95
2018-05-01T05:32:31.854Z,1003.97
2018-05-01T05:33:32.287Z,1004.00
2018-05-01T05:34:32.719Z,1003.99
2018-05-01T05:35:33.155Z,1003.96
2018-05-01T05:36:33.587Z,1004.01
2018-05-01T05:37:34.023Z,1004.08
2018-05-01T05:38:34.449Z,1004.02
2018-05-01T05:39:34.880Z,1004.08
2018-05-01T05:40:35.312Z,1003.99
2018-05-01T05:41:35.744Z,1004.00
2018-05-01T05:42:36.177Z,1003.99
2018-05-01T05:43:36.607Z,1003.98
2018-05-01T05:44:37.052Z,1004.01
2018-05-01T05:45:37.484Z,1004.01
2018-05-01T05:46:37.900Z,1003.99
2018-05-01T05:47:38.336Z,1003.98
2018-05-01T05:48:38.767Z,1003.98
2018-05-01T05:49:39.211Z,1004.00
2018-05-01T05:50:39.651Z,1004.03
2018-05-01T05:51:40.062Z,1003.99
2018-05-01T05:52:40.507Z,1004.04
2018-05-01T05:53:40.935Z,1004.07
2018-05-01T05:54:41.357Z,1003.94
2018-05-01T05:55:41.806Z,1003.97
2018-05-01T05:56:42.227Z,1004.01
2018-05-01T05:57:42.654Z,1003.98
2018-05-01T05:58:43.084Z,1003.99
2018-05-01T05:59:43.514Z,1003.97
2018-05-01T06:00:43.945Z,1003.99
2018-05-01T06:01:44.381Z,1004.01
2018-05-01T06:02:44.811Z,1003.99
2018-05-01T06:03:45.259Z,1004.01
2018-05-01T06:04:45.673Z,1003.97
2018-05-01T06:05:46.112Z,1003.92
2018-05-01T06:06:46.547Z,1003.98
2018-05-01T06:07:47.062Z,1003.98
2018-05-01T06:08:47.399Z,1003.90
2018-05-01T06:09:47.837Z,1003.92
2018-05-01T06:10:48.265Z,1003.89
2018-05-01T06:11:48.703Z,1003.95
2018-05-01T06:12:49.125Z,1003.89
2018-05-01T06:13:49.616Z,1003.98
2018-05-01T06:14:49.989Z,1003.94
2018-05-01T06:15:50.444Z,1003.96
2018-05-01T06:16:50.855Z,1003.97
2018-05-01T06:17:51.286Z,1003.99
2018-05-01T06:18:51.713Z,1004.02
2018-05-01T06:19:52.167Z,1004.05
2018-05-01T06:20:52.581Z,1004.05
2018-05-01T06:21:53.063Z,1004.08
2018-05-01T06:22:53.515Z,1004.09
2018-05-01T06:23:53.879Z,1004.12
2018-05-01T06:24:54.306Z,1004.16
2018-05-01T06:25:54.744Z,1004.11
2018-05-01T06:26:55.228Z,1004.07
2018-05-01T06:27:55.609Z,1004.14
2018-05-01T06:28:56.036Z,1004.17
2018-05-01T06:29:56.473Z,1004.22
2018-05-01T06:30:56.906Z,1004.25
2018-05-01T06:31:57.363Z,1004.40
2018-05-01T06:32:57.784Z,1004.21
2018-05-01T06:33:58.198Z,1004.28
2018-05-01T06:34:58.629Z,1004.29
2018-05-01T06:35:59.071Z,1004.37
2018-05-01T06:36:59.527Z,1004.32
2018-05-01T06:37:59.925Z,1004.22
2018-05-01T06:39:00.361Z,1004.29
2018-05-01T06:40:00.794Z,1004.29
2018-05-01T06:41:01.267Z,1004.22
2018-05-01T06:42:01.681Z,1004.32
2018-05-01T06:43:02.096Z,1004.42
2018-05-01T06:44:02.614Z,1004.38
2018-05-01T06:45:02.965Z,1004.26
2018-05-01T06:46:03.391Z,1004.36
2018-05-01T06:47:03.831Z,1004.29
2018-05-01T06:48:04.265Z,1004.29
2018-05-01T06:49:04.714Z,1004.26
2018-05-01T06:50:05.150Z,1004.32
2018-05-01T06:51:05.576Z,1004.27
2018-05-01T06:52:06.009Z,1004.39
2018-05-01T06:53:06.441Z,1004.34
2018-05-01T06:54:06.880Z,1004.36
2018-05-01T06:55:07.363Z,1004.40
2018-05-01T06:56:07.760Z,1004.55
2018-05-01T06:57:08.198Z,1004.37
2018-05-01T06:58:08.656Z,1004.61
2018-05-01T06:59:09.082Z,1004.53
2018-05-01T07:00:09.515Z,1004.53
2018-05-01T07:01:09.958Z,1004.44
2018-05-01T07:02:10.417Z,1004.48
2018-05-01T07:03:10.962Z,1004.46
2018-05-01T07:04:11.299Z,1004.39
2018-05-01T07:05:11.723Z,1004.41
2018-05-01T07:06:12.161Z,1004.47
2018-05-01T07:07:12.601Z,1004.54
2018-05-01T07:08:13.053Z,1004.50
2018-05-01T07:09:13.491Z,1004.43
2018-05-01T07:10:13.987Z,1004.46
2018-05-01T07:11:14.380Z,1004.58
2018-05-01T07:12:14.817Z,1004.54
2018-05-01T07:13:15.263Z,1004.50
2018-05-01T07:14:15.717Z,1004.51
2018-05-01T07:15:16.144Z,1004.51
2018-05-01T07:16:16.595Z,1004.50
2018-05-01T07:17:17.032Z,1004.45
2018-05-01T07:18:17.486Z,1004.34
2018-05-01T07:19:17.923Z,1004.52
2018-05-01T07:20:18.370Z,1004.53
2018-05-01T07:21:18.833Z,1004.47
2018-05-01T07:22:19.264Z,1004.58
2018-05-01T07:23:19.705Z,1004.48
2018-05-01T07:24:20.156Z,1004.50
2018-05-01T07:25:20.647Z,1004.61
2018-05-01T07:26:21.057Z,1004.58
2018-05-01T07:27:21.541Z,1004.63
2018-05-01T07:28:21.944Z,1004.57
2018-05-01T07:29:22.426Z,1004.68
2018-05-01T07:30:22.856Z,1004.70
2018-05-01T07:31:23.306Z,1004.62
2018-05-01T07:32:23.751Z,1004.64
2018-05-01T07:33:24.189Z,1004.67
2018-05-01T07:34:24.631Z,1004.58
2018-05-01T07:35:25.082Z,1004.60
2018-05-01T07:36:25.549Z,1004.69
2018-05-01T07:37:25.983Z,1004.73
2018-05-01T07:38:26.418Z,1004.66
2018-05-01T07:39:26.896Z,1004.60
2018-05-01T07:40:27.322Z,1004.64
2018-05-01T07:41:27.771Z,1004.66
2018-05-01T07:42:28.217Z,1004.63
2018-05-01T07:43:28.674Z,1004.56
2018-05-01T07:44:29.103Z,1004.70
2018-05-01T07:45:29.588Z,1004.68
2018-05-01T07:46:30.007Z,1004.72
2018-05-01T07:47:30.453Z,1004.78
2018-05-01T07:48:30.934Z,1004.79
2018-05-01T07:49:31.353Z,1004.71
2018-05-01T07:50:31.802Z,1004.80
2018-05-01T07:51:32.274Z,1004.82
2018-05-01T07:52:32.703Z,1004.73
2018-05-01T07:53:33.137Z,1004.73
2018-05-01T07:54:33.588Z,1004.82
2018-05-01T07:55:34.068Z,1004.78
2018-05-01T07:56:34.487Z,1004.77
2018-05-01T07:57:34.941Z,1004.56
2018-05-01T07:58:35.419Z,1004.89
2018-05-01T07:59:35.860Z,1004.70
2018-05-01T08:00:36.304Z,1004.86
2018-05-01T08:01:36.774Z,1004.75
2018-05-01T08:02:37.225Z,1004.81
2018-05-01T08:03:37.661Z,1004.76
2018-05-01T08:04:38.117Z,1004.73
2018-05-01T08:05:38.528Z,1004.94
2018-05-01T08:06:38.988Z,1004.74
2018-05-01T08:07:39.505Z,1004.79
2018-05-01T08:08:39.886Z,1004.73
2018-05-01T08:09:40.329Z,1004.84
2018-05-01T08:10:40.780Z,1004.83
2018-05-01T08:11:41.236Z,1004.86
2018-05-01T08:12:41.673Z,1004.93
2018-05-01T08:13:42.115Z,1004.93
2018-05-01T08:14:42.604Z,1004.95
2018-05-01T08:15:42.995Z,1004.94
2018-05-01T08:16:43.456Z,1004.89
2018-05-01T08:17:43.907Z,1004.84
2018-05-01T08:18:44.359Z,1004.80
2018-05-01T08:19:44.815Z,1004.90
2018-05-01T08:20:45.223Z,1004.95
2018-05-01T08:21:45.666Z,1004.93
2018-05-01T08:22:46.119Z,1005.01
2018-05-01T08:23:46.532Z,1004.98
2018-05-01T08:24:46.972Z,1005.00
2018-05-01T08:25:47.414Z,1005.09
2018-05-01T08:26:47.869Z,1004.97
2018-05-01T08:27:48.284Z,1004.99
2018-05-01T08:28:48.742Z,1005.12
2018-05-01T08:29:49.186Z,1005.07
2018-05-01T08:30:49.613Z,1004.99
2018-05-01T08:31:50.050Z,1005.02
2018-05-01T08:32:50.494Z,1005.04
2018-05-01T08:33:50.945Z,1005.12
2018-05-01T08:34:51.395Z,1004.97
2018-05-01T08:35:51.805Z,1005.09
2018-05-01T08:36:52.253Z,1005.11
2018-05-01T08:37:52.723Z,1005.05
2018-05-01T08:38:53.130Z,1005.06
2018-05-01T08:39:53.602Z,1005.16
2018-05-01T08:40:54.005Z,1005.01
2018-05-01T08:41:54.442Z,1005.18
2018-05-01T08:42:54.876Z,1005.01
2018-05-01T08:43:55.318Z,1004.85
2018-05-01T08:44:55.748Z,1004.89
2018-05-01T08:45:56.198Z,1004.93
2018-05-01T08:46:56.623Z,1004.94
2018-05-01T08:47:57.065Z,1005.02
2018-05-01T08:48:57.496Z,1004.88
2018-05-01T08:49:57.932Z,1004.93
2018-05-01T08:50:58.375Z,1004.93
2018-05-01T08:51:58.813Z,1005.04
2018-05-01T08:52:59.244Z,1004.98
2018-05-01T08:53:59.694Z,1005.03
2018-05-01T08:55:00.118Z,1005.06
2018-05-01T08:56:00.556Z,1005.10
2018-05-01T08:57:00.994Z,1005.09
2018-05-01T08:58:01.433Z,1005.07
2018-05-01T08:59:01.880Z,1005.15
2018-05-01T09:00:02.313Z,1005.14
2018-05-01T09:01:02.742Z,1005.09
2018-05-01T09:02:03.185Z,1005.08
2018-05-01T09:03:03.622Z,1005.06
2018-05-01T09:04:04.060Z,1005.07
2018-05-01T09:05:04.504Z,1005.12
2018-05-01T09:06:04.941Z,1005.21
2018-05-01T09:07:05.375Z,1005.23
2018-05-01T09:08:05.818Z,1005.21
2018-05-01T09:09:06.259Z,1005.21
2018-05-01T09:10:06.709Z,1005.24
2018-05-01T09:11:07.142Z,1005.44
2018-05-01T09:12:07.580Z,1005.38
2018-05-01T09:13:08.035Z,1005.52
2018-05-01T09:14:08.482Z,1005.47
2018-05-01T09:15:08.931Z,1005.40
2018-05-01T09:16:09.392Z,1005.39
2018-05-01T09:17:09.819Z,1005.39
2018-05-01T09:18:10.331Z,1005.43
2018-05-01T09:19:10.722Z,1005.35
2018-05-01T09:20:11.172Z,1005.41
2018-05-01T09:21:11.614Z,1005.31
2018-05-01T09:22:12.072Z,1005.42
2018-05-01T09:23:12.526Z,1005.36
2018-05-01T09:24:12.966Z,1005.41
2018-05-01T09:25:13.433Z,1005.33
2018-05-01T09:26:13.875Z,1005.47
2018-05-01T09:27:14.324Z,1005.39
2018-05-01T09:28:14.791Z,1005.36
2018-05-01T09:29:15.238Z,1005.20
2018-05-01T09:30:15.705Z,1005.43
2018-05-01T09:31:16.151Z,1005.49
2018-05-01T09:32:16.603Z,1005.51
2018-05-01T09:33:17.064Z,1005.49
2018-05-01T09:34:17.580Z,1005.49
2018-05-01T09:35:18.002Z,1005.50
2018-05-01T09:36:18.424Z,1005.43
2018-05-01T09:37:18.878Z,1005.47
2018-05-01T09:38:19.325Z,1005.59
2018-05-01T09:39:19.792Z,1005.52
2018-05-01T09:40:20.259Z,1005.53
2018-05-01T09:41:20.699Z,1005.39
2018-05-01T09:42:21.200Z,1005.54
2018-05-01T09:43:21.653Z,1005.57
2018-05-01T09:44:22.099Z,1005.61
2018-05-01T09:45:22.551Z,1005.55
2018-05-01T09:46:23.024Z,1005.47
2018-05-01T09:47:23.463Z,1005.58
2018-05-01T09:48:23.930Z,1005.72
2018-05-01T09:49:24.385Z,1005.61
2018-05-01T09:50:24.836Z,1005.55
2018-05-01T09:51:25.294Z,1005.56
2018-05-01T09:52:25.739Z,1005.56
2018-05-01T09:53:26.195Z,1005.54
2018-05-01T09:54:26.664Z,1005.64
2018-05-01T09:55:27.101Z,1005.56
2018-05-01T09:56:27.567Z,1005.61
2018-05-01T09:57:28.035Z,1005.59
2018-05-01T09:58:28.475Z,1005.50
2018-05-01T09:59:28.944Z,1005.46
2018-05-01T10:00:29.423Z,1005.57
2018-05-01T10:01:29.893Z,1005.62
2018-05-01T10:02:30.353Z,1005.57
2018-05-01T10:03:30.803Z,1005.67
2018-05-01T10:04:31.249Z,1005.57
2018-05-01T10:05:31.721Z,1005.54
2018-05-01T10:06:32.149Z,1005.53
2018-05-01T10:07:32.616Z,1005.51
2018-05-01T10:08:33.072Z,1005.54
2018-05-01T10:09:33.529Z,1005.49
2018-05-01T10:10:33.995Z,1005.50
2018-05-01T10:11:34.453Z,1005.52
2018-05-01T10:12:34.912Z,1005.52
2018-05-01T10:13:35.370Z,1005.53
2018-05-01T10:14:35.880Z,1005.61
2018-05-01T10:15:36.292Z,1005.60
2018-05-01T10:16:36.753Z,1005.54
2018-05-01T10:17:37.211Z,1005.51
2018-05-01T10:18:37.679Z,1005.54
2018-05-01T10:19:38.128Z,1005.41
2018-05-01T10:20:38.588Z,1005.45
2018-05-01T10:21:39.050Z,1005.52
2018-05-01T10:22:39.508Z,1005.48
2018-05-01T10:23:39.979Z,1005.63
2018-05-01T10:24:40.429Z,1005.59
2018-05-01T10:25:40.900Z,1005.60
2018-05-01T10:26:41.359Z,1005.62
2018-05-01T10:27:41.815Z,1005.58
2018-05-01T10:28:42.288Z,1005.49
2018-05-01T10:29:42.734Z,1005.57
2018-05-01T10:30:43.206Z,1005.67
2018-05-01T10:31:43.655Z,1005.62
2018-05-01T10:32:44.125Z,1005.51
2018-05-01T10:33:44.572Z,1005.60
2018-05-01T10:34:45.052Z,1005.62
2018-05-01T10:35:45.499Z,1005.68
2018-05-01T10:36:45.963Z,1005.61
2018-05-01T10:37:46.416Z,1005.68
2018-05-01T10:38:46.921Z,1005.78
2018-05-01T10:39:47.337Z,1005.67
2018-05-01T10:40:47.784Z,1005.63
2018-05-01T10:41:48.246Z,1005.62
2018-05-01T10:42:48.709Z,1005.47
2018-05-01T10:43:49.171Z,1005.53
2018-05-01T10:44:49.622Z,1005.61
2018-05-01T10:45:50.089Z,1005.60
2018-05-01T10:46:50.552Z,1005.55
2018-05-01T10:47:50.992Z,1005.66
2018-05-01T10:48:51.449Z,1005.62
2018-05-01T10:49:51.918Z,1005.58
2018-05-01T10:50:52.375Z,1005.67
2018-05-01T10:51:52.840Z,1005.59
2018-05-01T10:52:53.298Z,1005.55
2018-05-01T10:53:53.751Z,1005.50
2018-05-01T10:54:54.207Z,1005.55
2018-05-01T10:55:54.676Z,1005.54
2018-05-01T10:56:55.137Z,1005.48
2018-05-01T10:57:55.598Z,1005.58
2018-05-01T10:58:56.065Z,1005.64
2018-05-01T10:59:56.518Z,1005.68
2018-05-01T11:00:56.980Z,1005.69
2018-05-01T11:01:57.456Z,1005.69
2018-05-01T11:02:57.912Z,1005.69
2018-05-01T11:03:58.371Z,1005.71
2018-05-01T11:04:58.837Z,1005.61
2018-05-01T11:05:59.302Z,1005.63
2018-05-01T11:06:59.764Z,1005.58
2018-05-01T11:08:00.231Z,1005.66
2018-05-01T11:09:00.688Z,1005.71
2018-05-01T11:10:01.156Z,1005.63
2018-05-01T11:11:01.612Z,1005.73
2018-05-01T11:12:02.078Z,1005.79
2018-05-01T11:13:02.537Z,1005.66
2018-05-01T11:14:03.002Z,1005.61
2018-05-01T11:15:03.461Z,1005.56
2018-05-01T11:16:03.917Z,1005.66
2018-05-01T11:17:04.383Z,1005.79
2018-05-01T11:18:04.845Z,1005.81
2018-05-01T11:19:05.305Z,1005.78
2018-05-01T11:20:05.768Z,1005.79
2018-05-01T11:21:06.231Z,1005.81
2018-05-01T11:22:06.693Z,1005.82
2018-05-01T11:23:07.153Z,1005.73
2018-05-01T11:24:07.614Z,1005.71
2018-05-01T11:25:08.076Z,1005.69
2018-05-01T11:26:08.616Z,1005.64
2018-05-01T11:27:08.997Z,1005.70
2018-05-01T11:28:09.463Z,1005.67
2018-05-01T11:29:09.924Z,1005.79
2018-05-01T11:30:10.386Z,1005.71
2018-05-01T11:31:10.862Z,1005.78
2018-05-01T11:32:11.331Z,1005.78
2018-05-01T11:33:11.784Z,1005.82
2018-05-01T11:34:12.238Z,1005.89
2018-05-01T11:35:12.708Z,1005.99
2018-05-01T11:36:13.160Z,1005.98
2018-05-01T11:37:13.621Z,1006.05
2018-05-01T11:38:14.082Z,1005.95
2018-05-01T11:39:14.540Z,1006.00
2018-05-01T11:40:14.996Z,1005.98
2018-05-01T11:41:15.448Z,1006.00
2018-05-01T11:42:15.904Z,1006.02
2018-05-01T11:43:16.353Z,1006.19
2018-05-01T11:44:16.808Z,1006.01
2018-05-01T11:45:17.254Z,1006.04
2018-05-01T11:46:17.759Z,1006.06
2018-05-01T11:47:18.146Z,1006.06
2018-05-01T11:48:18.599Z,1006.05
2018-05-01T11:49:19.039Z,1006.01
2018-05-01T11:50:19.493Z,1006.07
2018-05-01T11:51:19.929Z,1006.13
2018-05-01T11:52:20.374Z,1006.18
2018-05-01T11:53:20.818Z,1006.25
2018-05-01T11:54:21.259Z,1006.35
2018-05-01T11:55:21.706Z,1006.24
2018-05-01T11:56:22.144Z,1006.20
2018-05-01T11:57:22.588Z,1006.22
2018-05-01T11:58:23.028Z,1006.23
2018-05-01T11:59:23.466Z,1006.28
2018-05-01T12:00:23.906Z,1006.27
2018-05-01T12:01:24.345Z,1006.26
2018-05-01T12:02:24.787Z,1006.27
2018-05-01T12:03:25.226Z,1006.40
2018-05-01T12:04:25.732Z,1006.47
2018-05-01T12:05:26.103Z,1006.47
2018-05-01T12:06:26.543Z,1006.45
2018-05-01T12:07:26.981Z,1006.62
2018-05-01T12:08:27.418Z,1006.52
2018-05-01T12:09:27.858Z,1006.45
2018-05-01T12:10:28.309Z,1006.53